CheckWX is a tool to help pilots better visualize weather data.  It is not intended as a substitute for an official pre-flight weather briefing.

08:03:33 UTC

KMFR TAF
Rogue Valley International - Medford Airport
Medford, Oregon, USA
KMFR 150521Z 1506/1606 VRB03KT P6SM SKC FM152100 30008KT P6SM OVC050 FM160000 31010KT P6SM -RA OVC040 FM160400 VRB03KT P6SM -RA SCT020 OVC040

Sep-15@
06:00 UTC

Sep-15 @ 06:00 UTC

Sep-15@
21:00 UTC

Sep-15 @ 21:00 UTC

KMFR 150521Z 1506/1606 VRB03KT P6SM SKC
Wind
  • Variable at 3 KTS
Cloud Levels
  • Clear skies

Sep-15@
21:00 UTC

Sep-15 @ 21:00 UTC

Sep-16@
00:00 UTC

Sep-16 @ 00:00 UTC

FM152100 30008KT P6SM OVC050

From

From Standard forecast or significant change

Wind
  • 300° at 8 KTS
Cloud Levels
  • Overcast at 5,000' AGL

Sep-16@
00:00 UTC

Sep-16 @ 00:00 UTC

Sep-16@
04:00 UTC

Sep-16 @ 04:00 UTC

FM160000 31010KT P6SM -RA OVC040

From

From Standard forecast or significant change

Wind
  • 310° at 10 KTS
Conditions
Light Rain
Cloud Levels
  • Overcast at 4,000' AGL

Sep-16@
04:00 UTC

Sep-16 @ 04:00 UTC

Sep-16@
06:00 UTC

Sep-16 @ 06:00 UTC

FM160400 VRB03KT P6SM -RA SCT020 OVC040

From

From Standard forecast or significant change

Wind
  • Variable at 3 KTS
Conditions
Light Rain
Cloud Levels
  • Scattered at 2,000' AGL
  • Overcast at 4,000' AGL